createdAt,value
2023-03-12T00:01:07.297Z,49.95
2023-03-12T00:03:35.144Z,50.05
2023-03-12T00:06:10.626Z,48.65
2023-03-12T00:08:38.755Z,48.40
2023-03-12T00:11:08.500Z,52.03
2023-03-12T00:13:38.237Z,44.65
2023-03-12T00:16:06.140Z,49.75
2023-03-12T00:18:33.789Z,51.17
2023-03-12T00:21:03.496Z,47.13
2023-03-12T00:23:31.396Z,45.00
2023-03-12T00:25:59.044Z,44.92
2023-03-12T00:28:28.763Z,47.08
2023-03-12T00:30:57.278Z,49.92
2023-03-12T00:33:24.859Z,43.67
2023-03-12T00:35:54.629Z,43.33
2023-03-12T00:38:22.324Z,52.33
2023-03-12T00:40:50.171Z,46.53
2023-03-12T00:43:19.825Z,45.42
2023-03-12T00:45:47.730Z,44.92
2023-03-12T00:48:15.294Z,47.00
2023-03-12T00:50:45.131Z,45.75
2023-03-12T00:53:13.058Z,47.75
2023-03-12T00:55:44.016Z,42.47
2023-03-12T00:58:14.255Z,44.22
2023-03-12T01:00:41.901Z,44.42
2023-03-12T01:03:18.384Z,44.13
2023-03-12T01:05:46.461Z,47.55
2023-03-12T01:08:14.213Z,44.95
2023-03-12T01:10:44.300Z,57.97
2023-03-12T01:13:12.580Z,49.10
2023-03-12T01:15:40.295Z,42.75
2023-03-12T01:18:10.078Z,39.83
2023-03-12T01:20:38.088Z,45.05
2023-03-12T01:23:05.681Z,40.35
2023-03-12T01:25:35.434Z,36.67
2023-03-12T01:28:03.045Z,43.03
2023-03-12T01:30:30.737Z,42.33
2023-03-12T01:33:00.528Z,48.20
2023-03-12T01:35:28.488Z,44.67
2023-03-12T01:37:56.349Z,43.10
2023-03-12T01:40:26.108Z,39.40
2023-03-12T01:42:57.430Z,38.47
2023-03-12T01:45:29.292Z,39.63
2023-03-12T01:47:56.949Z,40.85
2023-03-12T01:50:24.736Z,34.00
2023-03-12T01:52:56.542Z,32.10
2023-03-12T01:55:25.414Z,39.03
2023-03-12T01:57:53.503Z,37.10
2023-03-12T02:00:23.256Z,40.53
2023-03-12T02:03:00.412Z,36.15
2023-03-12T02:05:30.357Z,40.15
2023-03-12T02:07:59.254Z,34.88
2023-03-12T02:10:26.876Z,35.70
2023-03-12T02:12:58.862Z,39.65
2023-03-12T02:15:26.492Z,44.70
2023-03-12T02:17:54.950Z,39.63
2023-03-12T02:20:24.784Z,43.05
2023-03-12T02:22:53.488Z,37.00
2023-03-12T02:25:21.558Z,38.50
2023-03-12T02:27:51.322Z,37.78
2023-03-12T02:30:18.962Z,41.25
2023-03-12T02:32:48.408Z,33.55
2023-03-12T02:35:16.498Z,41.58
2023-03-12T02:37:44.103Z,33.75
2023-03-12T02:40:11.934Z,35.00
2023-03-12T02:42:39.894Z,32.97
2023-03-12T02:45:09.740Z,36.78
2023-03-12T02:47:44.649Z,34.30
2023-03-12T02:50:12.898Z,38.75
2023-03-12T02:52:40.450Z,36.90
2023-03-12T02:55:10.919Z,35.92
2023-03-12T02:57:38.591Z,36.15
2023-03-12T03:00:06.181Z,36.45
2023-03-12T03:02:36.376Z,34.28
2023-03-12T03:05:04.063Z,31.17
2023-03-12T03:07:32.064Z,29.52
2023-03-12T03:10:01.913Z,32.30
2023-03-12T03:12:29.505Z,32.47
2023-03-12T03:14:57.088Z,33.03
2023-03-12T03:17:27.023Z,36.15
2023-03-12T03:19:55.271Z,32.42
2023-03-12T03:22:23.184Z,34.90
2023-03-12T03:24:51.346Z,30.00
2023-03-12T03:27:47.460Z,30.25
2023-03-12T03:30:19.461Z,28.77
2023-03-12T03:32:47.998Z,30.67
2023-03-12T03:35:19.373Z,30.13
2023-03-12T03:37:47.370Z,30.70
2023-03-12T03:40:15.002Z,27.77
2023-03-12T03:42:42.930Z,32.28
2023-03-12T03:45:10.564Z,28.55
2023-03-12T03:47:38.820Z,26.65
2023-03-12T03:50:06.618Z,30.13
2023-03-12T03:52:36.524Z,28.70
2023-03-12T03:55:04.066Z,31.15
2023-03-12T03:57:33.291Z,28.05
2023-03-12T04:00:03.893Z,31.17
2023-03-12T04:02:31.831Z,29.60
2023-03-12T04:04:59.578Z,29.63
2023-03-12T04:07:27.286Z,31.00
2023-03-12T04:09:55.031Z,31.17
2023-03-12T04:12:22.799Z,29.60
2023-03-12T04:14:52.542Z,33.38
2023-03-12T04:17:20.129Z,32.83
2023-03-12T04:19:47.784Z,50.55
2023-03-12T04:22:17.520Z,29.70
2023-03-12T04:24:45.259Z,27.95
2023-03-12T04:27:14.087Z,30.23
2023-03-12T04:29:42.820Z,31.85
2023-03-12T04:32:12.646Z,28.55
2023-03-12T04:34:40.687Z,29.92
2023-03-12T04:37:08.280Z,37.95
2023-03-12T04:39:38.376Z,37.88
2023-03-12T04:42:06.235Z,34.72
2023-03-12T04:44:33.824Z,31.30
2023-03-12T04:47:03.613Z,27.63
2023-03-12T04:49:32.001Z,27.92
2023-03-12T04:51:59.544Z,35.28
2023-03-12T04:54:29.312Z,43.50
2023-03-12T04:56:57.345Z,39.78
2023-03-12T04:59:24.979Z,35.90
2023-03-12T05:01:54.772Z,30.42
2023-03-12T05:04:22.478Z,29.85
2023-03-12T05:06:50.062Z,27.55
2023-03-12T05:09:19.849Z,35.65
2023-03-12T05:11:47.501Z,30.00
2023-03-12T05:14:15.030Z,30.80
2023-03-12T05:16:45.037Z,25.60
2023-03-12T05:19:12.901Z,32.20
2023-03-12T05:21:40.470Z,29.48
2023-03-12T05:24:10.594Z,27.70
2023-03-12T05:26:38.375Z,25.98
2023-03-12T05:29:05.953Z,26.45
2023-03-12T05:31:35.769Z,26.85
2023-03-12T05:34:03.547Z,29.02
2023-03-12T05:36:31.209Z,23.75
2023-03-12T05:39:00.964Z,29.63
2023-03-12T05:41:28.792Z,27.92
2023-03-12T05:43:56.513Z,30.00
2023-03-12T05:46:24.225Z,32.50
2023-03-12T05:48:57.754Z,28.40
2023-03-12T05:51:25.351Z,24.88
2023-03-12T05:53:53.241Z,28.73
2023-03-12T05:56:21.008Z,27.42
2023-03-12T05:58:48.698Z,28.73
2023-03-12T06:01:16.480Z,32.75
2023-03-12T06:03:46.434Z,29.10
2023-03-12T06:06:14.110Z,26.63
2023-03-12T06:08:41.762Z,26.42
2023-03-12T06:11:11.796Z,26.92
2023-03-12T06:13:39.468Z,27.15
2023-03-12T06:16:07.140Z,27.50
2023-03-12T06:18:37.473Z,27.50
2023-03-12T06:21:05.392Z,26.67
2023-03-12T06:23:33.968Z,27.48
2023-03-12T06:26:05.334Z,27.60
2023-03-12T06:28:33.251Z,27.02
2023-03-12T06:31:01.000Z,34.92
2023-03-12T06:33:30.852Z,27.67
2023-03-12T06:35:59.871Z,25.15
2023-03-12T06:38:27.577Z,26.70
2023-03-12T06:40:57.352Z,36.45
2023-03-12T06:43:25.060Z,27.38
2023-03-12T06:45:53.889Z,27.65
2023-03-12T06:48:23.651Z,30.75
2023-03-12T06:50:51.226Z,28.77
2023-03-12T06:53:18.987Z,25.40
2023-03-12T06:55:48.820Z,29.13
2023-03-12T06:58:16.475Z,26.70
2023-03-12T07:00:44.191Z,27.40
2023-03-12T07:03:14.250Z,29.30
2023-03-12T07:05:41.982Z,28.08
2023-03-12T07:08:10.859Z,27.08
2023-03-12T07:10:40.773Z,29.60
2023-03-12T07:13:08.704Z,29.00
2023-03-12T07:15:36.432Z,34.40
2023-03-12T07:18:06.225Z,28.67
2023-03-12T07:20:33.826Z,29.27
2023-03-12T07:23:01.561Z,29.83
2023-03-12T07:25:31.320Z,31.02
2023-03-12T07:27:59.021Z,30.67
2023-03-12T07:30:26.649Z,29.33
2023-03-12T07:32:54.438Z,34.00
2023-03-12T07:35:22.126Z,31.55
2023-03-12T07:37:49.956Z,29.08
2023-03-12T07:40:19.736Z,31.73
2023-03-12T07:42:47.277Z,32.10
2023-03-12T07:45:14.949Z,33.42
2023-03-12T07:47:44.649Z,31.25
2023-03-12T07:50:12.754Z,29.42
2023-03-12T07:52:40.646Z,28.67
2023-03-12T07:55:10.856Z,29.70
2023-03-12T07:57:38.670Z,28.85
2023-03-12T08:00:06.431Z,30.83
2023-03-12T08:02:36.068Z,32.38
2023-03-12T08:05:03.758Z,27.05
2023-03-12T08:07:32.632Z,29.02
2023-03-12T08:10:00.495Z,27.70
2023-03-12T08:12:28.257Z,32.95
2023-03-12T08:14:57.977Z,31.83
2023-03-12T08:17:27.821Z,28.23
2023-03-12T08:19:55.433Z,27.30
2023-03-12T08:22:24.035Z,33.83
2023-03-12T08:24:53.058Z,34.47
2023-03-12T08:27:20.691Z,35.10
2023-03-12T08:29:52.446Z,32.25
2023-03-12T08:32:22.341Z,35.05
2023-03-12T08:34:49.985Z,35.28
2023-03-12T08:37:17.923Z,31.05
2023-03-12T08:39:47.738Z,31.75
2023-03-12T08:42:15.347Z,35.63
2023-03-12T08:44:43.369Z,29.88
2023-03-12T08:47:13.257Z,29.02
2023-03-12T08:49:41.017Z,33.08
2023-03-12T08:52:10.530Z,29.98
2023-03-12T08:54:38.104Z,33.63
2023-03-12T08:57:05.699Z,36.17
2023-03-12T08:59:34.872Z,28.20
2023-03-12T09:02:02.476Z,40.03
2023-03-12T09:04:30.180Z,35.45
2023-03-12T09:06:59.954Z,28.48
2023-03-12T09:09:27.540Z,33.13
2023-03-12T09:11:55.197Z,30.77
2023-03-12T09:14:59.566Z,29.02
2023-03-12T09:17:10.555Z,28.95
2023-03-12T09:19:40.474Z,29.95
2023-03-12T09:22:08.129Z,32.72
2023-03-12T09:24:36.172Z,30.00
2023-03-12T09:27:06.008Z,27.58
2023-03-12T09:29:33.878Z,28.70
2023-03-12T09:32:01.502Z,30.67
2023-03-12T09:34:31.571Z,28.67
2023-03-12T09:36:59.242Z,37.72
2023-03-12T09:39:27.076Z,28.80
2023-03-12T09:41:57.061Z,37.60
2023-03-12T09:44:24.850Z,34.00
2023-03-12T09:46:52.539Z,30.25
2023-03-12T09:49:20.364Z,34.90
2023-03-12T09:51:48.052Z,31.90
2023-03-12T09:54:15.674Z,25.95
2023-03-12T09:56:45.502Z,32.33
2023-03-12T09:59:13.429Z,39.42
2023-03-12T10:01:41.011Z,31.33
2023-03-12T10:04:10.124Z,31.55
2023-03-12T10:06:37.811Z,28.85
2023-03-12T10:09:05.435Z,35.03
2023-03-12T10:11:33.368Z,31.15
2023-03-12T10:14:01.266Z,39.33
2023-03-12T10:16:28.802Z,35.92
2023-03-12T10:18:56.651Z,35.45
2023-03-12T10:21:24.331Z,30.00
2023-03-12T10:23:51.893Z,30.48
2023-03-12T10:26:19.552Z,36.97
2023-03-12T10:28:47.125Z,40.90
2023-03-12T10:31:14.716Z,35.58
2023-03-12T10:33:42.532Z,35.05
2023-03-12T10:36:10.184Z,35.78
2023-03-12T10:38:37.850Z,33.80
2023-03-12T10:41:07.730Z,43.30
2023-03-12T10:43:35.602Z,47.08
2023-03-12T10:46:03.460Z,45.88
2023-03-12T10:48:33.434Z,37.47
2023-03-12T10:51:01.064Z,45.90
2023-03-12T10:53:29.813Z,56.15
2023-03-12T10:56:00.249Z,39.95
2023-03-12T10:58:27.904Z,39.40
2023-03-12T11:00:55.497Z,43.92
2023-03-12T11:03:23.365Z,37.92
2023-03-12T11:05:51.332Z,40.83
2023-03-12T11:08:18.919Z,40.00
2023-03-12T11:10:49.087Z,41.60
2023-03-12T11:13:16.713Z,48.83
2023-03-12T11:15:44.434Z,38.70
2023-03-12T11:18:12.368Z,35.58
2023-03-12T11:20:40.191Z,38.35
2023-03-12T11:23:07.937Z,36.83
2023-03-12T11:25:36.509Z,39.67
2023-03-12T11:28:04.128Z,40.67
2023-03-12T11:30:32.055Z,39.33
2023-03-12T11:33:01.327Z,35.78
2023-03-12T11:35:29.052Z,34.42
2023-03-12T11:37:57.716Z,41.72
2023-03-12T11:40:25.824Z,45.85
2023-03-12T11:42:53.441Z,42.05
2023-03-12T11:45:21.024Z,42.15
2023-03-12T11:47:50.817Z,42.42
2023-03-12T11:50:18.634Z,39.25
2023-03-12T11:52:46.386Z,51.42
2023-03-12T11:55:16.684Z,43.92
2023-03-12T11:57:48.317Z,47.90
2023-03-12T12:00:16.032Z,43.30
2023-03-12T12:02:45.778Z,41.65
2023-03-12T12:05:13.351Z,45.13
2023-03-12T12:07:41.157Z,36.42
2023-03-12T12:10:09.847Z,38.42
2023-03-12T12:12:37.414Z,39.95
2023-03-12T12:15:05.491Z,42.03
2023-03-12T12:17:33.134Z,37.53
2023-03-12T12:20:00.715Z,39.90
2023-03-12T12:22:28.460Z,40.05
2023-03-12T12:24:56.302Z,40.75
2023-03-12T12:27:25.575Z,43.50
2023-03-12T12:29:53.288Z,38.80
2023-03-12T12:32:21.212Z,33.22
2023-03-12T12:34:48.929Z,38.78
2023-03-12T12:37:16.777Z,42.58
2023-03-12T12:39:47.176Z,40.17
2023-03-12T12:42:14.793Z,40.45
2023-03-12T12:44:42.725Z,38.15
2023-03-12T12:47:13.069Z,57.15
2023-03-12T12:49:40.992Z,44.03
2023-03-12T12:52:08.797Z,42.25
2023-03-12T12:54:36.969Z,44.20
2023-03-12T12:57:04.622Z,40.05
2023-03-12T12:59:32.324Z,46.40
2023-03-12T13:02:02.197Z,44.70
2023-03-12T13:04:29.842Z,41.22
2023-03-12T13:06:57.577Z,45.00
2023-03-12T13:09:25.652Z,45.35
2023-03-12T13:11:53.293Z,42.63
2023-03-12T13:14:20.938Z,44.33
2023-03-12T13:16:51.362Z,50.20
2023-03-12T13:19:18.969Z,42.17
2023-03-12T13:21:46.844Z,50.85
2023-03-12T13:24:16.113Z,46.28
2023-03-12T13:26:45.114Z,49.97
2023-03-12T13:29:13.150Z,43.70
2023-03-12T13:31:42.687Z,46.20
2023-03-12T13:34:10.301Z,51.58
2023-03-12T13:36:37.948Z,43.47
2023-03-12T13:39:07.551Z,40.17
2023-03-12T13:41:35.168Z,47.65
2023-03-12T13:44:02.805Z,44.92
2023-03-12T13:46:33.906Z,53.70
2023-03-12T13:49:02.044Z,45.72
2023-03-12T13:51:29.862Z,47.53
2023-03-12T13:54:00.577Z,53.50
2023-03-12T13:56:28.667Z,47.92
2023-03-12T13:58:56.508Z,55.25
2023-03-12T14:01:25.463Z,48.10
2023-03-12T14:03:53.146Z,48.47
2023-03-12T14:06:20.867Z,51.88
2023-03-12T14:08:50.312Z,48.30
2023-03-12T14:11:17.876Z,46.70
2023-03-12T14:13:45.459Z,49.85
2023-03-12T14:16:13.543Z,41.72
2023-03-12T14:18:41.188Z,40.20
2023-03-12T14:21:09.024Z,35.70
2023-03-12T14:23:39.838Z,36.70
2023-03-12T14:26:07.516Z,36.90
2023-03-12T14:28:35.395Z,37.00
2023-03-12T14:31:03.541Z,38.63
2023-03-12T14:33:31.508Z,33.70
2023-03-12T14:35:59.223Z,37.20
2023-03-12T14:38:27.285Z,37.08
2023-03-12T14:40:54.931Z,35.75
2023-03-12T14:43:22.677Z,36.45
2023-03-12T14:45:51.197Z,52.58
2023-03-12T14:48:18.813Z,38.75
2023-03-12T14:50:46.982Z,37.80
2023-03-12T14:53:16.182Z,36.60
2023-03-12T14:55:48.806Z,40.90
2023-03-12T14:58:16.522Z,36.58
2023-03-12T15:00:44.121Z,36.28
2023-03-12T15:03:12.099Z,34.30
2023-03-12T15:05:39.894Z,36.13
2023-03-12T15:08:07.554Z,34.45
2023-03-12T15:10:37.867Z,40.78
2023-03-12T15:13:05.671Z,34.15
2023-03-12T15:15:33.229Z,35.60
2023-03-12T15:18:03.320Z,32.53
2023-03-12T15:20:31.144Z,32.72
2023-03-12T15:22:58.729Z,31.20
2023-03-12T15:25:29.045Z,34.28
2023-03-12T15:27:56.681Z,31.88
2023-03-12T15:30:24.253Z,33.83
2023-03-12T15:32:56.499Z,28.20
2023-03-12T15:35:24.425Z,31.48
2023-03-12T15:37:52.171Z,25.67
2023-03-12T15:40:22.075Z,28.58
2023-03-12T15:42:49.684Z,31.13
2023-03-12T15:45:17.234Z,33.03
2023-03-12T15:47:46.951Z,23.15
2023-03-12T15:50:14.708Z,26.50
2023-03-12T15:52:42.296Z,25.40
2023-03-12T15:55:12.222Z,22.85
2023-03-12T15:57:39.839Z,31.83
2023-03-12T16:00:07.399Z,20.60
2023-03-12T16:02:37.239Z,18.30
2023-03-12T16:05:06.423Z,20.75
2023-03-12T16:07:35.203Z,21.95
2023-03-12T16:10:05.055Z,25.70
2023-03-12T16:12:32.855Z,27.52
2023-03-12T16:15:00.416Z,19.30
2023-03-12T16:17:31.301Z,19.60
2023-03-12T16:19:58.956Z,27.73
2023-03-12T16:22:26.996Z,22.83
2023-03-12T16:24:56.812Z,19.88
2023-03-12T16:27:32.570Z,21.17
2023-03-12T16:30:00.707Z,19.00
2023-03-12T16:32:31.300Z,22.10
2023-03-12T16:34:58.944Z,23.40
2023-03-12T16:37:26.562Z,18.02
2023-03-12T16:39:56.756Z,20.70
2023-03-12T16:42:24.327Z,21.20
2023-03-12T16:44:53.720Z,18.73
2023-03-12T16:47:23.654Z,19.23
2023-03-12T16:49:52.638Z,22.98
2023-03-12T16:52:20.238Z,21.17
2023-03-12T16:54:50.216Z,20.85
2023-03-12T16:57:17.769Z,17.88
2023-03-12T16:59:45.315Z,16.95
2023-03-12T17:02:15.085Z,18.50
2023-03-12T17:04:42.769Z,18.40
2023-03-12T17:07:10.487Z,19.70
2023-03-12T17:09:40.238Z,22.42
2023-03-12T17:12:07.860Z,19.85
2023-03-12T17:14:35.481Z,14.73
2023-03-12T17:17:05.481Z,17.13
2023-03-12T17:19:33.600Z,16.17
2023-03-12T17:22:01.221Z,16.35
2023-03-12T17:24:30.999Z,18.40
2023-03-12T17:26:58.603Z,17.15
2023-03-12T17:29:26.246Z,17.95
2023-03-12T17:31:56.237Z,15.98
2023-03-12T17:34:23.832Z,20.38
2023-03-12T17:36:51.880Z,17.33
2023-03-12T17:39:21.745Z,21.60
2023-03-12T17:41:49.320Z,19.50
2023-03-12T17:44:17.102Z,18.80
2023-03-12T17:46:58.358Z,18.25
2023-03-12T17:49:26.973Z,14.55
2023-03-12T17:51:55.845Z,17.05
2023-03-12T17:54:23.659Z,18.15
2023-03-12T17:56:51.783Z,19.10
2023-03-12T17:59:21.641Z,16.58
2023-03-12T18:01:49.219Z,18.85
2023-03-12T18:04:17.936Z,22.33
2023-03-12T18:06:51.158Z,17.77
2023-03-12T18:09:19.844Z,18.45
2023-03-12T18:11:48.453Z,16.95
2023-03-12T18:14:19.960Z,17.67
2023-03-12T18:16:48.280Z,15.90
2023-03-12T18:19:16.642Z,16.05
2023-03-12T18:21:44.746Z,18.05
2023-03-12T18:24:14.542Z,20.70
2023-03-12T18:26:42.544Z,18.00
2023-03-12T18:29:13.474Z,16.95
2023-03-12T18:31:41.128Z,19.83
2023-03-12T18:34:08.899Z,17.77
2023-03-12T18:36:38.585Z,18.08
2023-03-12T18:39:06.193Z,16.42
2023-03-12T18:41:33.829Z,19.38
2023-03-12T18:44:03.611Z,19.30
2023-03-12T18:46:31.313Z,17.50
2023-03-12T18:48:58.989Z,19.73
2023-03-12T18:51:27.832Z,16.45
2023-03-12T18:53:55.392Z,18.30
2023-03-12T18:56:22.971Z,18.00
2023-03-12T18:58:52.734Z,17.85
2023-03-12T19:01:20.507Z,19.23
2023-03-12T19:03:48.180Z,19.15
2023-03-12T19:06:17.899Z,18.23
2023-03-12T19:08:45.464Z,21.60
2023-03-12T19:11:13.572Z,20.92
2023-03-12T19:13:43.297Z,18.23
2023-03-12T19:16:11.105Z,20.08
2023-03-12T19:18:38.869Z,19.50
2023-03-12T19:21:08.688Z,19.02
2023-03-12T19:23:36.313Z,19.98
2023-03-12T19:26:03.957Z,21.45
2023-03-12T19:28:31.655Z,19.63
2023-03-12T19:30:59.431Z,21.88
2023-03-12T19:33:27.190Z,23.10
2023-03-12T19:35:57.000Z,20.77
2023-03-12T19:38:24.599Z,23.02
2023-03-12T19:40:54.262Z,20.08
2023-03-12T19:43:25.209Z,22.70
2023-03-12T19:45:53.086Z,21.63
2023-03-12T19:48:20.671Z,21.00
2023-03-12T19:50:50.419Z,24.90
2023-03-12T19:53:18.026Z,25.25
2023-03-12T19:55:45.619Z,25.73
2023-03-12T19:58:15.369Z,24.10
2023-03-12T20:00:43.030Z,23.80
2023-03-12T20:03:10.663Z,25.38
2023-03-12T20:05:40.460Z,24.77
2023-03-12T20:08:08.229Z,27.75
2023-03-12T20:10:35.691Z,24.15
2023-03-12T20:13:05.404Z,25.38
2023-03-12T20:15:33.010Z,28.30
2023-03-12T20:18:01.405Z,26.33
2023-03-12T20:20:32.499Z,27.33
2023-03-12T20:23:00.386Z,25.80
2023-03-12T20:25:27.960Z,29.80
2023-03-12T20:27:57.716Z,30.13
2023-03-12T20:30:25.517Z,28.38
2023-03-12T20:32:53.245Z,29.35
2023-03-12T20:35:23.669Z,29.48
2023-03-12T20:37:51.413Z,32.53
2023-03-12T20:40:19.159Z,30.77
2023-03-12T20:42:47.868Z,28.83
2023-03-12T20:45:15.432Z,33.60
2023-03-12T20:47:42.996Z,35.85
2023-03-12T20:50:11.823Z,32.20
2023-03-12T20:52:39.495Z,30.67
2023-03-12T20:55:07.320Z,30.35
2023-03-12T20:57:37.076Z,37.13
2023-03-12T21:00:04.832Z,34.53
2023-03-12T21:02:33.291Z,31.23
2023-03-12T21:05:02.979Z,32.45
2023-03-12T21:07:49.068Z,32.70
2023-03-12T21:10:39.000Z,34.45
2023-03-12T21:13:26.953Z,31.80
2023-03-12T21:16:16.956Z,33.28
2023-03-12T21:19:04.822Z,31.58
2023-03-12T21:21:54.821Z,29.63
2023-03-12T21:24:42.665Z,32.40
2023-03-12T21:27:44.581Z,33.08
2023-03-12T21:30:37.596Z,30.92
2023-03-12T21:33:27.574Z,27.67
2023-03-12T21:36:15.408Z,32.30
2023-03-12T21:39:05.334Z,31.10
2023-03-12T21:41:53.166Z,30.85
2023-03-12T21:44:43.107Z,28.23
2023-03-12T21:47:30.925Z,31.10
2023-03-12T21:50:19.853Z,28.85
2023-03-12T21:53:21.407Z,30.70
2023-03-12T21:56:11.012Z,28.27
2023-03-12T21:58:58.861Z,26.52
2023-03-12T22:01:47.811Z,26.00
2023-03-12T22:04:35.676Z,27.88
2023-03-12T22:07:25.669Z,39.22
2023-03-12T22:09:53.304Z,48.95
2023-03-12T22:12:42.036Z,43.92
2023-03-12T22:15:25.814Z,41.25
2023-03-12T22:17:58.982Z,33.13
2023-03-12T22:22:58.660Z,28.45
2023-03-12T22:25:33.687Z,26.20
2023-03-12T22:28:01.772Z,29.83
2023-03-12T22:30:31.891Z,35.97
2023-03-12T22:33:07.138Z,31.90
2023-03-12T22:35:36.888Z,30.35
2023-03-12T22:38:07.039Z,31.23
2023-03-12T22:40:35.077Z,31.08
2023-03-12T22:43:02.852Z,27.45
2023-03-12T22:45:32.843Z,27.77
2023-03-12T22:48:00.427Z,25.52
2023-03-12T22:50:28.131Z,26.70
2023-03-12T22:52:56.817Z,28.35
2023-03-12T22:55:24.457Z,28.20
2023-03-12T22:57:52.351Z,27.80
2023-03-12T23:00:22.148Z,25.67
2023-03-12T23:02:49.899Z,27.67
2023-03-12T23:05:17.629Z,31.10
2023-03-12T23:07:47.539Z,28.73
2023-03-12T23:10:17.113Z,27.67
2023-03-12T23:12:44.708Z,26.73
2023-03-12T23:15:14.450Z,26.33
2023-03-12T23:17:42.021Z,29.00
2023-03-12T23:20:09.907Z,26.98
2023-03-12T23:22:40.412Z,28.27
2023-03-12T23:25:08.025Z,30.42
2023-03-12T23:27:35.828Z,29.95
2023-03-12T23:30:05.788Z,27.52
2023-03-12T23:32:33.571Z,34.00
2023-03-12T23:35:01.534Z,27.25
2023-03-12T23:37:38.305Z,31.42
2023-03-12T23:40:06.278Z,30.55
2023-03-12T23:42:34.413Z,32.03
2023-03-12T23:45:04.947Z,32.25
2023-03-12T23:47:32.678Z,35.10
2023-03-12T23:50:00.365Z,33.20
2023-03-12T23:52:30.170Z,27.92
2023-03-12T23:54:57.786Z,48.80
2023-03-12T23:57:26.444Z,31.20
2023-03-12T23:59:56.461Z,29.20
